Time;durP1;ratioP1;P1;durP2;ratioP2;P2;SDS_P1;SDS_P2;PMS_P1;PMS_P2;Temp;Humidity;BMP_temperature;BMP_pressure;BME280_temperature;BME280_humidity;BME280_pressure;Samples;Min_cycle;Max_cycle;Signal;HPM_P1;HPM_P2
2022/02/23 00:01:32;;;;;;;;;36.50;33.00;7.10;62.90;;;;;;4921236;29;8810;-66
2022/02/23 00:03:59;;;;;;;;;36.25;31.25;6.90;64.30;;;;;;4920965;29;8780;-67
2022/02/23 00:06:25;;;;;;;;;31.50;30.50;6.50;65.80;;;;;;4920936;29;8756;-66
2022/02/23 00:08:51;;;;;;;;;30.50;30.00;6.50;66.80;;;;;;4920922;29;8778;-68
2022/02/23 00:11:17;;;;;;;;;29.50;28.00;6.60;66.30;;;;;;4921083;29;8767;-67
2022/02/23 00:13:43;;;;;;;;;33.25;29.50;6.60;65.20;;;;;;4920843;29;8818;-67
2022/02/23 00:16:08;;;;;;;;;30.00;27.75;6.70;64.80;;;;;;4920606;29;8858;-67
2022/02/23 00:18:34;;;;;;;;;34.75;32.50;7.00;63.80;;;;;;4920896;29;8811;-67
2022/02/23 00:21:00;;;;;;;;;29.25;29.25;7.30;61.70;;;;;;4920913;29;8768;-67
2022/02/23 00:23:26;;;;;;;;;28.25;27.75;7.50;60.20;;;;;;4921233;29;8815;-69
2022/02/23 00:25:52;;;;;;;;;27.00;27.00;7.40;60.10;;;;;;4903851;29;8798;-65
2022/02/23 00:28:18;;;;;;;;;31.50;30.25;7.30;60.30;;;;;;4920087;29;8807;-66
2022/02/23 00:30:44;;;;;;;;;29.00;25.25;7.50;59.50;;;;;;4920549;29;8802;-68
2022/02/23 00:33:10;;;;;;;;;36.00;30.50;7.80;58.00;;;;;;4920142;29;8823;-67
2022/02/23 00:35:36;;;;;;;;;35.00;31.00;7.70;57.30;;;;;;4920614;29;8799;-66
2022/02/23 00:38:03;;;;;;;;;28.75;28.75;7.70;57.30;;;;;;4920355;29;8827;-68
2022/02/23 00:40:28;;;;;;;;;29.50;27.25;7.60;56.80;;;;;;4920322;29;8866;-68
2022/02/23 00:42:56;;;;;;;;;32.50;27.75;7.60;56.20;;;;;;4919244;29;8807;-67
2022/02/23 00:45:22;;;;;;;;;26.50;25.50;7.60;56.20;;;;;;4919910;29;8791;-66
2022/02/23 00:47:47;;;;;;;;;29.75;25.75;7.50;56.30;;;;;;4919676;29;8800;-66
2022/02/23 00:50:13;;;;;;;;;35.25;31.50;7.20;57.20;;;;;;4919354;29;8810;-66
2022/02/23 00:52:39;;;;;;;;;25.00;22.00;7.20;57.50;;;;;;4919422;29;9466;-66
2022/02/23 00:55:05;;;;;;;;;36.25;33.25;7.30;57.50;;;;;;4920126;29;8827;-66
2022/02/23 00:57:31;;;;;;;;;34.00;30.50;7.60;56.50;;;;;;4919835;29;8873;-66
2022/02/23 00:59:57;;;;;;;;;30.25;29.25;7.80;55.60;;;;;;4919886;29;8930;-67
2022/02/23 01:02:24;;;;;;;;;35.75;31.00;7.70;54.40;;;;;;4919938;29;8892;-64
2022/02/23 01:04:50;;;;;;;;;35.75;29.50;7.80;54.20;;;;;;4918501;29;8795;-69
2022/02/23 01:07:16;;;;;;;;;21.25;21.00;7.50;54.70;;;;;;4917585;29;8930;-67
2022/02/23 01:09:43;;;;;;;;;30.50;25.00;7.30;54.50;;;;;;4918635;29;8890;-67
2022/02/23 01:12:09;;;;;;;;;24.75;23.25;7.50;55.10;;;;;;4916791;29;8807;-68
2022/02/23 01:14:36;;;;;;;;;29.50;22.75;7.50;54.40;;;;;;4919288;29;8792;-67
2022/02/23 01:17:02;;;;;;;;;29.25;29.25;7.50;54.30;;;;;;4919309;29;8780;-67
2022/02/23 01:19:28;;;;;;;;;29.00;26.50;7.50;54.20;;;;;;4919835;29;9454;-69
2022/02/23 01:21:54;;;;;;;;;28.75;28.50;7.40;54.10;;;;;;4919707;29;8807;-68
2022/02/23 01:24:19;;;;;;;;;43.25;38.25;7.70;53.60;;;;;;4919781;29;8775;-68
2022/02/23 01:26:45;;;;;;;;;55.75;43.50;7.70;53.80;;;;;;4919437;29;8767;-67
2022/02/23 01:29:11;;;;;;;;;49.00;40.50;7.70;53.10;;;;;;4918998;29;8799;-66
2022/02/23 01:31:37;;;;;;;;;48.50;40.75;7.70;53.10;;;;;;4918435;29;8838;-69
2022/02/23 01:34:03;;;;;;;;;48.25;40.25;7.60;53.10;;;;;;4919252;29;8854;-69
2022/02/23 01:36:29;;;;;;;;;43.00;38.00;7.70;53.20;;;;;;4919296;29;8791;-67
2022/02/23 01:38:55;;;;;;;;;44.00;40.50;7.40;53.30;;;;;;4919176;29;8819;-67
2022/02/23 01:41:21;;;;;;;;;43.25;39.50;7.60;52.60;;;;;;4919426;29;8794;-68
2022/02/23 01:43:48;;;;;;;;;47.75;40.00;8.10;51.40;;;;;;4919210;29;9536;-67
2022/02/23 01:46:15;;;;;;;;;45.50;40.00;8.30;50.70;;;;;;4919104;29;8784;-65
2022/02/23 01:48:41;;;;;;;;;31.75;29.75;8.20;50.60;;;;;;4919336;29;8818;-68
2022/02/23 01:51:07;;;;;;;;;34.25;31.75;8.70;50.10;;;;;;4919212;29;9477;-68
2022/02/23 01:53:33;;;;;;;;;23.00;20.00;8.90;48.80;;;;;;4919383;29;8849;-65
2022/02/23 01:55:59;;;;;;;;;34.50;31.25;9.10;48.10;;;;;;4918897;29;8787;-68
2022/02/23 01:58:24;;;;;;;;;34.75;28.75;8.80;48.80;;;;;;4917225;29;8826;-66
2022/02/23 02:00:50;;;;;;;;;29.25;25.50;8.20;49.90;;;;;;4918623;29;8775;-66
2022/02/23 02:03:16;;;;;;;;;35.50;27.75;8.00;50.80;;;;;;4918856;29;8874;-66
2022/02/23 02:05:43;;;;;;;;;30.75;27.75;7.80;50.70;;;;;;4918293;29;8811;-66
2022/02/23 02:08:09;;;;;;;;;29.25;26.00;7.70;51.20;;;;;;4918780;29;8783;-66
2022/02/23 02:10:35;;;;;;;;;32.25;32.25;7.90;51.00;;;;;;4918918;29;8871;-67
2022/02/23 02:13:01;;;;;;;;;36.75;35.75;8.10;50.10;;;;;;4918591;29;8779;-68
2022/02/23 02:15:27;;;;;;;;;31.25;30.50;7.40;51.30;;;;;;4918761;29;8870;-68
2022/02/23 02:17:53;;;;;;;;;39.50;28.75;7.30;52.10;;;;;;4918280;29;8796;-67
2022/02/23 02:20:19;;;;;;;;;40.00;36.25;7.10;53.30;;;;;;4918774;29;8783;-68
2022/02/23 02:22:45;;;;;;;;;43.25;38.00;7.30;52.60;;;;;;4918663;29;8842;-67
2022/02/23 02:25:10;;;;;;;;;30.25;26.00;7.30;52.70;;;;;;4918460;29;9024;-67
2022/02/23 02:27:36;;;;;;;;;26.50;25.25;7.10;52.90;;;;;;4918664;29;8857;-66
2022/02/23 02:30:04;;;;;;;;;29.25;25.25;7.30;52.80;;;;;;4918667;29;8792;-68
2022/02/23 02:32:30;;;;;;;;;32.25;27.00;7.10;52.70;;;;;;4918396;29;8795;-68
2022/02/23 02:34:56;;;;;;;;;27.00;25.50;7.20;53.30;;;;;;4918411;29;8783;-67
2022/02/23 02:37:22;;;;;;;;;34.50;32.50;7.30;52.60;;;;;;4918534;29;8784;-66
2022/02/23 02:39:48;;;;;;;;;43.25;38.25;7.80;51.20;;;;;;4918224;29;8823;-68
2022/02/23 02:42:14;;;;;;;;;47.00;40.50;8.30;50.10;;;;;;4918259;29;8813;-68
2022/02/23 02:44:41;;;;;;;;;40.75;36.25;8.70;48.70;;;;;;4918488;29;8886;-67
2022/02/23 02:47:06;;;;;;;;;35.75;31.25;8.50;48.60;;;;;;4918226;29;8779;-67
2022/02/23 02:49:32;;;;;;;;;32.75;28.25;8.60;48.40;;;;;;4918121;29;8787;-65
2022/02/23 02:51:58;;;;;;;;;29.75;25.00;8.20;49.20;;;;;;4918113;29;8803;-66
2022/02/23 02:54:24;;;;;;;;;25.25;24.75;7.90;50.20;;;;;;4918313;29;8776;-67
2022/02/23 02:56:50;;;;;;;;;23.25;21.50;7.90;49.90;;;;;;4918092;29;9418;-65
2022/02/23 02:59:17;;;;;;;;;21.25;21.00;8.00;50.10;;;;;;4918243;29;8898;-66
2022/02/23 03:01:43;;;;;;;;;21.75;21.75;8.20;49.70;;;;;;4918292;29;8791;-67
2022/02/23 03:04:09;;;;;;;;;27.00;24.25;8.10;48.70;;;;;;4918385;29;8846;-66
2022/02/23 03:06:36;;;;;;;;;25.25;22.25;7.80;49.70;;;;;;4917998;29;8791;-66
2022/02/23 03:09:03;;;;;;;;;27.75;27.75;7.60;49.80;;;;;;4918054;29;8887;-67
2022/02/23 03:11:29;;;;;;;;;23.00;22.00;7.90;49.30;;;;;;4918047;29;8813;-66
2022/02/23 03:13:55;;;;;;;;;26.50;25.50;7.80;49.30;;;;;;4917984;29;8780;-65
2022/02/23 03:16:21;;;;;;;;;26.00;22.75;7.90;48.80;;;;;;4918201;29;8779;-68
2022/02/23 03:18:48;;;;;;;;;23.25;22.00;8.10;48.20;;;;;;4918157;29;8881;-66
2022/02/23 03:21:14;;;;;;;;;33.25;27.00;7.90;48.60;;;;;;4918154;29;9433;-67
2022/02/23 03:23:40;;;;;;;;;17.00;17.00;8.30;47.50;;;;;;4918267;29;8799;-67
2022/02/23 03:26:09;;;;;;;;;27.50;25.25;8.10;47.10;;;;;;4917934;29;8776;-67
2022/02/23 03:28:35;;;;;;;;;19.25;18.00;7.90;47.70;;;;;;4918260;29;8854;-67
2022/02/23 03:31:01;;;;;;;;;21.00;21.00;8.10;47.50;;;;;;4921791;29;8803;-67
2022/02/23 03:33:27;;;;;;;;;28.00;25.00;8.30;47.20;;;;;;4921373;29;8815;-67
2022/02/23 03:35:52;;;;;;;;;32.25;32.25;8.60;46.20;;;;;;4921728;29;8838;-68
2022/02/23 03:38:18;;;;;;;;;26.75;25.00;8.80;45.40;;;;;;4921592;29;8837;-68
2022/02/23 03:40:44;;;;;;;;;45.75;37.25;8.70;45.60;;;;;;4921464;29;8802;-68
2022/02/23 03:43:10;;;;;;;;;46.25;39.25;8.20;46.50;;;;;;4921660;29;8783;-67
2022/02/23 03:45:37;;;;;;;;;40.00;36.25;8.20;46.60;;;;;;4921233;29;8795;-66
2022/02/23 03:48:03;;;;;;;;;44.75;38.25;8.10;46.60;;;;;;4921509;29;8791;-68
2022/02/23 03:50:29;;;;;;;;;36.00;35.25;8.50;46.30;;;;;;4921221;29;8775;-68
2022/02/23 03:52:55;;;;;;;;;39.50;37.25;8.80;45.50;;;;;;4921341;29;8821;-65
2022/02/23 03:55:20;;;;;;;;;38.50;31.50;9.10;44.90;;;;;;4921326;29;8799;-67
2022/02/23 03:57:47;;;;;;;;;32.25;29.75;9.20;44.70;;;;;;4921213;29;8784;-68
2022/02/23 04:00:14;;;;;;;;;32.50;32.50;9.00;44.60;;;;;;4921313;29;8767;-66
2022/02/23 04:02:41;;;;;;;;;26.25;26.25;9.00;45.00;;;;;;4920991;29;8853;-67
2022/02/23 04:05:08;;;;;;;;;28.25;25.25;9.20;44.40;;;;;;4921038;29;8894;-67
2022/02/23 04:07:34;;;;;;;;;18.50;18.00;9.00;44.00;;;;;;4921187;29;8802;-66
2022/02/23 04:10:00;;;;;;;;;27.00;24.75;8.80;44.10;;;;;;4919928;29;8771;-66
2022/02/23 04:12:26;;;;;;;;;27.25;27.25;8.50;44.90;;;;;;4920867;29;8886;-68
2022/02/23 04:14:52;;;;;;;;;25.50;24.25;8.10;46.10;;;;;;4921067;29;8889;-67
2022/02/23 04:17:18;;;;;;;;;38.00;31.50;8.20;46.30;;;;;;4920712;29;8797;-66
2022/02/23 04:19:44;;;;;;;;;37.25;36.00;8.50;45.80;;;;;;4920564;29;8908;-66
2022/02/23 04:22:10;;;;;;;;;42.50;38.50;8.90;45.10;;;;;;4920891;29;8827;-67
2022/02/23 04:24:36;;;;;;;;;55.00;46.00;8.90;44.60;;;;;;4920554;29;8799;-66
2022/02/23 04:27:03;;;;;;;;;53.50;43.50;9.00;45.00;;;;;;4920515;29;8898;-66
2022/02/23 04:29:30;;;;;;;;;44.25;37.25;8.90;44.50;;;;;;4920709;29;8787;-68
2022/02/23 04:31:56;;;;;;;;;40.50;37.25;9.30;43.60;;;;;;4920513;29;8787;-69
2022/02/23 04:34:23;;;;;;;;;27.50;26.00;9.30;43.80;;;;;;4920275;29;8803;-67
2022/02/23 04:36:49;;;;;;;;;37.50;34.50;9.60;42.90;;;;;;4920397;29;8858;-68
2022/02/23 04:39:15;;;;;;;;;47.50;40.00;9.50;43.40;;;;;;4919779;29;8819;-66
2022/02/23 04:41:41;;;;;;;;;56.75;49.00;8.90;44.00;;;;;;4920140;29;8795;-67
2022/02/23 04:44:07;;;;;;;;;53.75;40.75;9.20;43.40;;;;;;4920725;29;8897;-66
2022/02/23 04:46:34;;;;;;;;;64.25;52.25;9.50;42.60;;;;;;4920077;29;8815;-66
2022/02/23 04:49:00;;;;;;;;;57.75;47.25;9.30;42.90;;;;;;4920209;29;8902;-65
2022/02/23 04:51:29;;;;;;;;;51.00;41.75;9.60;42.70;;;;;;4920245;29;8886;-66
2022/02/23 04:53:56;;;;;;;;;54.25;44.00;9.80;42.40;;;;;;4920325;29;8787;-66
2022/02/23 04:56:23;;;;;;;;;39.75;36.25;9.80;42.40;;;;;;4920042;29;8779;-65
2022/02/23 04:58:48;;;;;;;;;30.00;28.75;10.00;42.30;;;;;;4920165;29;8926;-67
2022/02/23 05:01:14;;;;;;;;;30.25;27.25;9.60;41.90;;;;;;4919956;29;8874;-67
2022/02/23 05:03:40;;;;;;;;;62.75;51.00;9.70;42.60;;;;;;4919967;29;8814;-67
2022/02/23 05:06:07;;;;;;;;;65.50;49.75;9.40;44.20;;;;;;4920113;29;9450;-67
2022/02/23 05:08:33;;;;;;;;;61.75;47.75;9.20;45.00;;;;;;4919841;29;8837;-66
2022/02/23 05:10:59;;;;;;;;;58.00;48.25;9.30;45.40;;;;;;4919878;29;8772;-67
2022/02/23 05:13:25;;;;;;;;;71.75;58.00;9.60;44.40;;;;;;4919702;29;8806;-66
2022/02/23 05:16:01;;;;;;;;;141.25;123.25;9.70;43.20;;;;;;4919842;29;9694;-66
2022/02/23 05:18:28;;;;;;;;;107.50;99.00;10.00;42.70;;;;;;4919417;29;8831;-66
2022/02/23 05:20:55;;;;;;;;;74.50;58.00;10.20;42.50;;;;;;4919414;29;8795;-66
2022/02/23 05:23:20;;;;;;;;;86.75;67.50;9.80;41.70;;;;;;4919812;29;8807;-65
2022/02/23 05:25:46;;;;;;;;;47.00;39.00;9.40;44.00;;;;;;4919487;29;8779;-65
2022/02/23 05:28:12;;;;;;;;;48.00;41.25;9.30;43.90;;;;;;4919679;29;8783;-66
2022/02/23 05:30:38;;;;;;;;;46.00;40.25;9.70;43.10;;;;;;4919462;29;8796;-65
2022/02/23 05:33:04;;;;;;;;;91.25;79.50;9.90;42.70;;;;;;4902456;29;8830;-66
2022/02/23 05:35:30;;;;;;;;;87.50;73.00;10.20;41.60;;;;;;4919513;29;8889;-66
2022/02/23 05:37:57;;;;;;;;;85.25;66.25;10.30;41.40;;;;;;4919164;29;8854;-66
2022/02/23 05:40:22;;;;;;;;;52.75;46.25;10.30;41.30;;;;;;4917903;29;8799;-65
2022/02/23 05:42:48;;;;;;;;;60.00;48.75;9.40;41.90;;;;;;4918035;29;9538;-65
2022/02/23 05:45:14;;;;;;;;;49.25;40.00;8.90;42.80;;;;;;4918726;29;8780;-67
2022/02/23 05:47:40;;;;;;;;;60.25;51.25;8.80;43.80;;;;;;4917541;29;8897;-65
2022/02/23 05:50:06;;;;;;;;;71.75;59.75;9.20;43.90;;;;;;4917876;29;8799;-67
2022/02/23 05:52:32;;;;;;;;;65.75;51.25;9.10;44.20;;;;;;4917937;29;9530;-65
2022/02/23 05:54:58;;;;;;;;;60.25;48.75;9.60;43.20;;;;;;4919141;29;8807;-65
2022/02/23 05:57:24;;;;;;;;;59.25;50.25;9.70;43.10;;;;;;4918856;29;9415;-65
2022/02/23 05:59:50;;;;;;;;;62.50;51.50;10.00;43.10;;;;;;4917763;29;8884;-65
2022/02/23 06:02:16;;;;;;;;;64.00;52.25;10.10;41.90;;;;;;4917803;29;9485;-65
2022/02/23 06:04:42;;;;;;;;;54.00;45.25;10.30;41.80;;;;;;4917569;29;8804;-65
2022/02/23 06:07:08;;;;;;;;;60.00;48.25;9.90;41.10;;;;;;4918918;29;8810;-65
2022/02/23 06:09:34;;;;;;;;;61.50;49.00;9.70;42.60;;;;;;4918663;29;8803;-65
2022/02/23 06:12:01;;;;;;;;;66.25;51.75;9.80;42.20;;;;;;4918642;29;8783;-66
2022/02/23 06:14:27;;;;;;;;;67.25;51.00;9.50;43.10;;;;;;4918614;29;8894;-64
2022/02/23 06:16:54;;;;;;;;;73.75;57.00;9.90;43.00;;;;;;4918743;29;8803;-66
2022/02/23 06:19:19;;;;;;;;;75.50;59.50;10.40;42.60;;;;;;4918550;29;8937;-68
2022/02/23 06:21:45;;;;;;;;;67.00;54.00;10.60;42.50;;;;;;4918718;29;8922;-67
2022/02/23 06:24:11;;;;;;;;;79.00;61.25;10.40;41.80;;;;;;4918681;29;8795;-67
2022/02/23 06:26:37;;;;;;;;;65.25;54.50;10.70;42.00;;;;;;4918400;29;8895;-69
2022/02/23 06:29:03;;;;;;;;;80.25;66.25;10.70;41.70;;;;;;4918428;29;8821;-67
2022/02/23 06:31:28;;;;;;;;;90.25;76.75;11.00;40.70;;;;;;4918495;29;8775;-67
2022/02/23 06:33:55;;;;;;;;;98.75;93.75;11.20;40.80;;;;;;4918107;29;8827;-67
2022/02/23 06:36:20;;;;;;;;;83.00;67.50;11.30;41.10;;;;;;4918556;29;9523;-65
2022/02/23 06:38:47;;;;;;;;;77.75;61.00;11.40;40.70;;;;;;4918170;29;8831;-69
2022/02/23 06:41:22;;;;;;;;;67.75;52.75;11.40;40.30;;;;;;4918471;29;8779;-69
2022/02/23 06:43:49;;;;;;;;;70.25;56.25;11.40;39.60;;;;;;4918539;29;9445;-68
2022/02/23 06:46:15;;;;;;;;;73.25;58.00;11.60;39.80;;;;;;4918093;29;8791;-67
2022/02/23 06:48:41;;;;;;;;;83.25;63.75;11.60;40.40;;;;;;4918383;29;8787;-69
2022/02/23 06:51:09;;;;;;;;;84.75;66.75;11.70;40.40;;;;;;4918221;29;8898;-68
2022/02/23 06:53:35;;;;;;;;;104.75;92.50;11.80;40.20;;;;;;4918130;29;8842;-71
2022/02/23 06:56:01;;;;;;;;;93.50;78.75;11.60;39.80;;;;;;4918095;29;8771;-68
2022/02/23 06:58:28;;;;;;;;;150.00;138.00;11.40;40.10;;;;;;4918216;29;8826;-69
2022/02/23 07:00:54;;;;;;;;;157.25;143.00;11.10;41.80;;;;;;4918108;29;8791;-68
2022/02/23 07:03:20;;;;;;;;;166.00;153.25;10.80;42.50;;;;;;4919831;29;8882;-67
2022/02/23 07:05:46;;;;;;;;;178.25;161.00;10.90;43.20;;;;;;4921988;29;9430;-68
2022/02/23 07:08:12;;;;;;;;;137.00;126.75;10.80;43.10;;;;;;4922244;29;8802;-68
2022/02/23 07:10:38;;;;;;;;;145.25;132.25;10.90;42.80;;;;;;4922145;29;8912;-67
2022/02/23 07:13:06;;;;;;;;;155.75;139.50;10.90;43.70;;;;;;4921838;29;8883;-67
2022/02/23 07:15:34;;;;;;;;;140.00;127.25;11.20;43.40;;;;;;4922055;29;8783;-67
2022/02/23 07:18:00;;;;;;;;;122.25;115.75;11.40;42.70;;;;;;4921756;29;8788;-65
2022/02/23 07:20:26;;;;;;;;;111.50;106.00;11.40;42.20;;;;;;4921995;29;8806;-67
2022/02/23 07:22:52;;;;;;;;;95.50;87.50;11.60;41.70;;;;;;4921617;29;8838;-66
2022/02/23 07:25:19;;;;;;;;;109.50;99.00;11.60;41.70;;;;;;4921751;29;9442;-66
2022/02/23 07:27:45;;;;;;;;;99.50;89.75;11.70;42.10;;;;;;4921690;29;8768;-67
2022/02/23 07:30:16;;;;;;;;;114.50;109.50;11.50;42.20;;;;;;4921478;29;8791;-67
2022/02/23 07:32:42;;;;;;;;;123.75;109.75;11.60;42.30;;;;;;4921467;29;8826;-68
2022/02/23 07:35:13;;;;;;;;;110.50;102.50;11.60;42.30;;;;;;4921698;29;8818;-67
2022/02/23 07:37:42;;;;;;;;;101.00;88.75;11.80;41.80;;;;;;4921599;29;8857;-69
2022/02/23 07:40:12;;;;;;;;;89.00;75.50;12.00;41.40;;;;;;4921302;29;8855;-67
2022/02/23 07:42:39;;;;;;;;;79.00;61.00;12.10;40.80;;;;;;4921571;29;8808;-69
2022/02/23 07:45:06;;;;;;;;;78.25;62.75;11.70;40.60;;;;;;4921306;29;8791;-70
2022/02/23 07:47:32;;;;;;;;;93.50;74.50;11.50;41.90;;;;;;4921273;29;9455;-69
2022/02/23 07:49:58;;;;;;;;;80.00;64.00;11.60;41.80;;;;;;4921281;29;8794;-66
2022/02/23 07:52:24;;;;;;;;;81.00;64.00;11.90;41.30;;;;;;4921199;29;8947;-68
2022/02/23 07:54:50;;;;;;;;;81.50;66.50;12.10;41.00;;;;;;4921215;29;8807;-70
2022/02/23 07:57:16;;;;;;;;;83.50;73.00;11.80;41.50;;;;;;4921048;29;8795;-67
2022/02/23 07:59:42;;;;;;;;;87.00;73.75;11.60;42.10;;;;;;4921167;29;8831;-68
2022/02/23 08:02:08;;;;;;;;;102.50;99.00;11.90;41.70;;;;;;4921049;29;8775;-68
2022/02/23 08:04:34;;;;;;;;;93.00;84.75;12.30;41.60;;;;;;4920890;29;8787;-71
2022/02/23 08:07:00;;;;;;;;;95.50;90.25;12.40;41.00;;;;;;4920968;29;8783;-68
2022/02/23 08:09:26;;;;;;;;;89.50;82.00;12.50;40.80;;;;;;4920867;29;8799;-69
2022/02/23 08:11:52;;;;;;;;;77.75;61.25;12.70;40.90;;;;;;4920885;29;8771;-69
2022/02/23 08:14:18;;;;;;;;;108.25;95.25;12.90;40.30;;;;;;4920222;29;8886;-69
2022/02/23 08:19:36;;;;;;;;;138.25;130.00;13.00;39.90;;;;;;4920805;29;8787;-71
2022/02/23 08:22:03;;;;;;;;;114.00;104.50;13.00;41.00;;;;;;4920913;29;8830;-68
2022/02/23 08:24:30;;;;;;;;;121.50;115.75;13.10;40.40;;;;;;4920582;29;8776;-67
2022/02/23 08:26:57;;;;;;;;;101.75;96.50;13.30;39.90;;;;;;4920564;29;8804;-69
2022/02/23 08:29:25;;;;;;;;;100.25;95.75;13.60;39.90;;;;;;4920801;29;8853;-70
2022/02/23 08:31:51;;;;;;;;;91.00;87.25;13.50;40.10;;;;;;4920535;29;8790;-70
2022/02/23 08:34:17;;;;;;;;;95.75;91.00;13.20;40.50;;;;;;4920392;29;8815;-68
2022/02/23 08:36:44;;;;;;;;;87.75;82.75;13.30;41.10;;;;;;4920655;29;8929;-69
2022/02/23 08:39:11;;;;;;;;;97.25;90.25;13.30;40.30;;;;;;4920235;29;8993;-65
2022/02/23 08:41:37;;;;;;;;;91.50;84.50;13.50;40.00;;;;;;4920305;29;8795;-65
2022/02/23 08:44:06;;;;;;;;;95.25;88.50;13.20;41.30;;;;;;4920219;29;8854;-66
2022/02/23 08:46:37;;;;;;;;;97.25;88.75;13.10;41.90;;;;;;4920261;29;8802;-66
2022/02/23 08:49:04;;;;;;;;;81.25;68.75;13.10;42.00;;;;;;4920360;29;8763;-65
2022/02/23 08:51:30;;;;;;;;;84.00;72.25;12.90;42.30;;;;;;4920309;29;8838;-65
2022/02/23 08:53:57;;;;;;;;;70.50;56.75;13.00;41.70;;;;;;4920324;29;8775;-65
2022/02/23 08:56:23;;;;;;;;;66.00;51.75;12.50;41.60;;;;;;4920069;29;8862;-66
2022/02/23 08:58:49;;;;;;;;;64.50;51.25;12.70;41.80;;;;;;4919947;29;8831;-66
2022/02/23 09:01:15;;;;;;;;;56.50;45.50;13.00;41.90;;;;;;4919956;29;8904;-66
2022/02/23 09:03:41;;;;;;;;;54.50;46.25;13.10;40.90;;;;;;4919832;29;8812;-66
2022/02/23 09:06:07;;;;;;;;;60.25;48.00;13.60;40.10;;;;;;4919879;29;8775;-65
2022/02/23 09:08:33;;;;;;;;;55.75;44.00;13.70;39.80;;;;;;4919809;29;8914;-66
2022/02/23 09:10:59;;;;;;;;;63.00;49.50;13.90;39.70;;;;;;4920085;29;8780;-65
2022/02/23 09:13:25;;;;;;;;;65.25;51.75;13.40;40.60;;;;;;4919597;29;8885;-65
2022/02/23 09:15:51;;;;;;;;;55.00;45.50;13.30;41.00;;;;;;4919852;29;8779;-66
2022/02/23 09:18:17;;;;;;;;;52.00;41.25;13.30;39.90;;;;;;4919497;29;8815;-66
2022/02/23 09:20:42;;;;;;;;;42.50;35.50;13.60;39.80;;;;;;4903301;29;8803;-66
2022/02/23 09:23:08;;;;;;;;;50.50;41.00;13.90;38.40;;;;;;4919696;29;8811;-66
2022/02/23 09:25:34;;;;;;;;;41.75;35.25;14.10;37.70;;;;;;4919271;29;8803;-66
2022/02/23 09:28:00;;;;;;;;;43.50;38.00;13.40;37.90;;;;;;4919715;29;8780;-66
2022/02/23 09:30:27;;;;;;;;;40.25;38.00;12.90;39.80;;;;;;4919701;29;8787;-65
2022/02/23 09:32:54;;;;;;;;;42.00;36.00;12.70;40.00;;;;;;4919142;29;8855;-66
2022/02/23 09:35:21;;;;;;;;;28.50;25.75;12.10;41.70;;;;;;4919298;29;8795;-66
2022/02/23 09:37:47;;;;;;;;;26.00;23.00;12.10;41.40;;;;;;4919352;29;8779;-66
2022/02/23 09:40:15;;;;;;;;;23.00;21.00;12.40;41.40;;;;;;4919149;29;8835;-66
2022/02/23 09:42:42;;;;;;;;;29.75;26.75;12.70;40.20;;;;;;4919240;29;8787;-66
2022/02/23 09:45:10;;;;;;;;;36.00;29.75;12.90;40.10;;;;;;4919419;29;8779;-66
2022/02/23 09:47:36;;;;;;;;;24.50;24.25;12.10;41.60;;;;;;4919116;29;8799;-66
2022/02/23 09:50:11;;;;;;;;;32.75;28.00;11.70;43.10;;;;;;4918982;29;8814;-65
2022/02/23 09:52:37;;;;;;;;;23.25;20.50;11.50;43.50;;;;;;4919201;29;8819;-65
2022/02/23 09:55:05;;;;;;;;;23.00;22.00;11.60;43.00;;;;;;4918953;29;8795;-65
2022/02/23 09:57:31;;;;;;;;;26.25;25.75;11.10;43.60;;;;;;4917283;29;8796;-65
2022/02/23 09:59:58;;;;;;;;;25.25;23.50;10.50;46.10;;;;;;4918832;29;8807;-65
2022/02/23 10:02:25;;;;;;;;;32.00;31.00;10.40;47.40;;;;;;4919000;29;9569;-65
2022/02/23 10:04:51;;;;;;;;;40.75;36.75;11.20;46.60;;;;;;4918862;29;8787;-65
2022/02/23 10:07:27;;;;;;;;;49.75;39.00;12.00;45.10;;;;;;4902079;29;8892;-66
2022/02/23 10:09:57;;;;;;;;;33.00;31.50;12.90;43.50;;;;;;4918705;29;8888;-65
2022/02/23 10:12:26;;;;;;;;;40.50;35.75;12.20;42.40;;;;;;4918639;29;8806;-65
2022/02/23 10:15:12;;;;;;;;;42.00;35.25;11.90;43.90;;;;;;4918938;29;8794;-65
2022/02/23 10:17:47;;;;;;;;;46.75;37.25;12.20;44.30;;;;;;4918625;29;8791;-65
2022/02/23 10:20:26;;;;;;;;;45.25;34.75;12.90;43.20;;;;;;4918466;29;8866;-65
2022/02/23 10:23:00;;;;;;;;;50.00;40.25;13.70;41.80;;;;;;4918652;29;8831;-65
2022/02/23 10:25:28;;;;;;;;;32.75;32.00;14.20;39.80;;;;;;4918578;29;9469;-65
2022/02/23 10:28:15;;;;;;;;;32.00;29.00;14.20;39.60;;;;;;4918631;29;9544;-65
2022/02/23 10:30:54;;;;;;;;;33.00;30.75;14.60;38.40;;;;;;4918442;29;8796;-66
2022/02/23 10:33:25;;;;;;;;;22.50;21.00;15.10;38.30;;;;;;4918274;29;8823;-66
2022/02/23 10:36:18;;;;;;;;;31.25;28.00;15.40;36.30;;;;;;4918439;29;8795;-65
2022/02/23 10:38:51;;;;;;;;;22.67;22.67;15.90;35.60;;;;;;4915773;29;8839;-66
2022/02/23 10:41:30;;;;;;;;;23.00;21.00;15.90;33.20;;;;;;4918295;29;8810;-65
2022/02/23 10:43:56;;;;;;;;;28.33;25.67;14.80;34.90;;;;;;4918292;29;8890;-65
2022/02/23 10:46:23;;;;;;;;;29.25;28.50;15.10;35.30;;;;;;4918157;29;8787;-66
2022/02/23 10:48:53;;;;;;;;;27.00;25.67;14.50;36.60;;;;;;4918184;29;8870;-66
2022/02/23 10:51:35;;;;;;;;;24.33;24.33;14.90;35.40;;;;;;4918490;29;8775;-66
2022/02/23 10:54:09;;;;;;;;;17.33;16.33;15.50;34.40;;;;;;4918132;29;8792;-66
2022/02/23 10:56:37;;;;;;;;;23.67;22.33;15.00;34.80;;;;;;4918071;29;8755;-66
2022/02/23 10:59:19;;;;;;;;;14.33;14.00;17.30;32.90;;;;;;4918038;29;8807;-66
2022/02/23 11:01:47;;;;;;;;;19.33;18.33;19.00;30.30;;;;;;4918177;29;8779;-66
2022/02/23 11:04:14;;;;;;;;;20.33;19.00;20.30;29.00;;;;;;4917920;29;8930;-69
2022/02/23 11:06:41;;;;;;;;;21.00;18.00;19.80;27.30;;;;;;4917936;29;8779;-68
2022/02/23 11:09:08;;;;;;;;;14.00;12.33;19.30;28.30;;;;;;4917917;29;12228;-69
2022/02/23 11:11:34;;;;;;;;;16.33;16.33;20.00;26.90;;;;;;4918043;29;12331;-68
2022/02/23 11:14:02;;;;;;;;;14.00;13.00;23.10;25.20;;;;;;4918081;29;11522;-69
2022/02/23 11:16:31;;;;;;;;;17.00;17.00;25.60;22.20;;;;;;4917990;29;11516;-66
2022/02/23 11:18:59;;;;;;;;;18.33;18.33;24.60;21.20;;;;;;4917651;29;11558;-70
2022/02/23 11:21:29;;;;;;;;;17.25;17.00;24.40;22.50;;;;;;4917645;29;11529;-69
2022/02/23 11:24:02;;;;;;;;;14.50;14.50;27.80;20.80;;;;;;4917781;29;11560;-70
2022/02/23 11:26:30;;;;;;;;;14.00;14.00;24.80;18.90;;;;;;4917707;29;11541;-68
2022/02/23 11:29:24;;;;;;;;;12.00;12.00;23.40;21.90;;;;;;4917859;29;11622;-73
2022/02/23 11:31:52;;;;;;;;;14.67;14.67;20.70;24.40;;;;;;4917732;29;11569;-68
2022/02/23 11:34:21;;;;;;;;;20.33;20.33;17.80;28.20;;;;;;4917568;29;8827;-68
2022/02/23 11:36:52;;;;;;;;;20.33;19.67;16.70;29.30;;;;;;4917848;29;8775;-67
2022/02/23 11:39:33;;;;;;;;;15.67;15.00;17.00;30.10;;;;;;4918852;29;8841;-70
2022/02/23 11:42:03;;;;;;;;;29.67;25.33;16.90;29.60;;;;;;4918419;29;8771;-72
2022/02/23 11:44:39;;;;;;;;;24.33;24.33;17.10;29.90;;;;;;4917725;29;8798;-70
2022/02/23 11:47:21;;;;;;;;;24.67;24.00;17.00;30.50;;;;;;4917657;29;8775;-72
2022/02/23 11:49:56;;;;;;;;;19.00;19.00;16.50;30.70;;;;;;4918127;29;8910;-72
2022/02/23 11:52:29;;;;;;;;;13.00;12.33;16.60;29.90;;;;;;4921425;29;9438;-72
2022/02/23 11:55:17;;;;;;;;;15.00;14.00;16.10;30.90;;;;;;4921223;29;8783;-72
2022/02/23 11:57:50;;;;;;;;;13.00;10.67;15.90;32.90;;;;;;4921417;29;8791;-71
2022/02/23 12:00:25;;;;;;;;;19.33;18.33;15.50;33.00;;;;;;4920867;29;8823;-73
2022/02/23 12:02:59;;;;;;;;;15.00;15.00;15.70;32.60;;;;;;4921204;29;9469;-71
2022/02/23 12:05:35;;;;;;;;;18.00;16.33;16.10;32.20;;;;;;4921037;29;8780;-71
2022/02/23 12:08:01;;;;;;;;;12.33;10.33;15.10;33.40;;;;;;4920868;29;8779;-72
2022/02/23 12:10:28;;;;;;;;;7.33;7.33;14.30;34.20;;;;;;4920663;29;8815;-72
2022/02/23 12:12:56;;;;;;;;;6.00;6.00;13.50;36.20;;;;;;4920938;29;8874;-71
2022/02/23 12:15:39;;;;;;;;;13.67;11.00;12.60;39.40;;;;;;4920949;29;8847;-72
2022/02/23 12:18:17;;;;;;;;;10.00;8.33;13.10;40.20;;;;;;4921047;29;8799;-72
2022/02/23 12:20:43;;;;;;;;;8.33;7.33;13.40;37.90;;;;;;4920765;29;8877;-72
2022/02/23 12:23:18;;;;;;;;;6.67;6.00;13.20;38.90;;;;;;4921179;29;8818;-72
2022/02/23 12:25:56;;;;;;;;;12.67;12.67;13.00;38.30;;;;;;4920886;29;8787;-71
2022/02/23 12:28:24;;;;;;;;;11.67;11.67;13.00;39.20;;;;;;4920646;29;8775;-70
2022/02/23 12:31:01;;;;;;;;;22.00;19.00;13.10;40.40;;;;;;4920608;29;8763;-71
2022/02/23 12:33:27;;;;;;;;;6.00;6.00;13.50;39.40;;;;;;4920556;29;8811;-72
2022/02/23 12:35:54;;;;;;;;;15.00;15.00;14.40;38.00;;;;;;4919796;29;9162;-67
2022/02/23 12:38:32;;;;;;;;;17.00;15.00;14.70;36.20;;;;;;4919114;29;8802;-65
2022/02/23 12:41:00;;;;;;;;;13.33;12.67;14.60;35.50;;;;;;4916567;29;8861;-68
2022/02/23 12:43:26;;;;;;;;;12.33;12.33;15.80;34.10;;;;;;4919328;29;8840;-67
2022/02/23 12:45:58;;;;;;;;;15.00;15.00;20.00;28.60;;;;;;4919219;29;8779;-67